Hazel Green, Kentucky
Current Conditions -  °F | °C
As of 12:53 PM on Sunday 21 Dec 2014 (Local Time) from KJKL Reporting Station
Clear Clear  
Wind Chill: 37°   Ceiling: Unl
Heat Index: 40°   Visibility: 10mi
Dew Point: 27°   Wind: 5mph
Humidity: 60%   Direction: NA
Pressure: 30.2"   Gusts: NA
Location:  37.8°N, 83.42°W
Report Text: KJKL 211753Z AUTO VRB04KT 10SM CLR 04/M03 A3020 RMK AO2 SLP235 I6000 T00441028 10044 21033 58026
Loading
Personal Weather Stations






























Interactive Weather Map New forecast layout! Learn more

10-Day Weather Forecast

Advertisements
Track Severe Weather on mobile